KSUX

Sioux Gateway / Col Bud Day Field Airport

Sioux City, Iowa, USA
METAR KSUX 141205Z 10004KT 1/2SM R31/2600V6000FT FZFG VV001 M09/M11 A3024 RMK AO2 T10891106
Observed Flight Rules
Dec-14 @ 12:05 UTC (14 minutes ago) Instrument Flight Rules
Wind Visibility Clouds Conditions
100° at 4 knots 1/2 miles
  • Vertical visibility at 100' AGL
  • Freezing
  • Fog
Temperatures Readings
Current -9°C / 16°F
Dewpoint -11°C / 12°F
Humidity 86%
Altimeter 30.24" Hg
Pressure 1024 hPa
Elevation 338
METAR KSUX 141205Z 10004KT 1/2SM R31/2600V6000FT FZFG VV001 M09/M11 A3024 RMK AO2 T10891106
Observed Flight Rules
Dec-14 @ 12:05 UTC
(14 minutes ago)
LIFR
Wind Visibility
100° at 4 knots 1/2 miles
Clouds
  • Vertical visibility at 100' AGL
Conditions
  • Freezing
  • Fog
Temperature Dewpoint
-9°C / 16°F -11°C / 12°F
Humidity Altimeter Pressure
86% 30.24" Hg 1024 hPa